Friday, January 30, 2015
21:34 UTC
  |  Log In   |  Register Free
Airport Search:

Meyers-Diver'S Airport
(3TE)

Meyers-Diver'S Airport Diagram
No Airport Diagram Available

FAA data valid effective January 08, 2015 - March 05, 2015 (unless otherwise noted).

 
 
 
 
 
 
 
 
 
 
 
 
 
 

Current Aviation Weather for Meyers-Diver'S Airport (3TE)

METAR data is unavailable for 3TE. The nearest METAR location is at KADG (11.3 nm SW from 3TE).

The most recent METAR observation for KADG was updated at: 2111
METAR Summary (Translated METAR)
KADG
302053Z AUTO 34007KT 10SM CLR M06/M14 A3044 RMK AO2 SLP322 T10561144 55002
(11.3 nm SW from 3TE)
KARB
302053Z 35009KT 10SM CLR M06/M15 A3043 RMK AO2 SLP317 T10611150 55001
(14.7 nm NE from 3TE)
TAF
No TAF information found within 50 nm of KADG
  Airport Weather Conditions for 3TE

Current weather conditions are
not available for 3TE


The nearest NOAA weather station
is at ADG, (11.3 nm SW from 3TE)
  
 Current Weather at ADG
22° F
Fair
North winds at 8.1 mph
ADG NOAA Radar

Pressure: 30.44 in
Humidity: 50%
Wind: North at 8.1 MPH (7 KT)
Dew Point: 6.1°F
Visibility: 10.00 mi


Airport Weather Forecast for 3TE

Translated METAR and TAF for KADG
Translated METAR for KADG (2135 UTC 30 January 2015)
found at http://aviationweather.gov/adds/metars/
 
METAR text: KADG 302053Z AUTO 34007KT 10SM CLR M06/M14 A3044 RMK AO2 SLP322 T10561144 55002
Conditions at: KADG (ADRIAN , MI, US) observed 2053 UTC 30 January 2015
Temperature: -5.6°C (22°F)
Dewpoint: -14.4°C (6°F) [RH = 50%]
Pressure (altimeter): 30.44 inches Hg (1030.9 mb)
[Sea-level pressure: 1032.2 mb]
Winds: from the NNW (340 degrees) at 8 MPH (7 knots; 3.6 m/s)
Visibility: 10 or more miles (16+ km)
Ceiling: at least 12,000 feet AGL
Clouds: sky clear below 12,000 feet AGL
Weather: automated observation with no human augmentation;
there may or may not be significant weather present at this time
Translated TAF for KADG

There is no translated TAF available for this airport

Find All Airport Services Find A Hotel Find A Rental Car Find A Golf Course Find A Restaurant $100 Hamburger



FBO's on the Field
FBO Company Facility Photos Services Transportation Aviation Fuel Prices: Prices include tax
Catering Weather Repair Courtesy Rental Type 100LL JetA JetA+ MOGAS 8087
 
Village of Boyceville

This FBO has not yet been rated
FS:Shell
Last Updated: Jan-21
Login to update fuel prices
SS:
Contact Village of BoycevilleMore FBO Information
 
Add another FBO Facility Photos Catering Weather Repair Courtesy Rental Type 100LL JetA JetA+ MOGAS 8087
Services Transportation Aviation Fuel Prices: Prices include tax


model-print
model-print
model-print
model-print